createdAt,value
2018-06-22T00:00:15.314Z,73.98
2018-06-22T00:01:15.281Z,73.74
2018-06-22T00:02:15.267Z,73.88
2018-06-22T00:03:15.259Z,73.64
2018-06-22T00:04:15.243Z,74.46
2018-06-22T00:05:15.230Z,73.95
2018-06-22T00:06:15.227Z,73.68
2018-06-22T00:07:15.218Z,73.85
2018-06-22T00:08:15.204Z,74.26
2018-06-22T00:09:15.192Z,73.74
2018-06-22T00:10:15.178Z,73.54
2018-06-22T00:11:15.185Z,73.64
2018-06-22T00:12:15.155Z,74.90
2018-06-22T00:13:15.146Z,74.05
2018-06-22T00:14:15.138Z,73.33
2018-06-22T00:15:15.129Z,73.88
2018-06-22T00:16:15.138Z,74.15
2018-06-22T00:17:15.106Z,73.54
2018-06-22T00:18:15.093Z,73.85
2018-06-22T00:19:15.083Z,74.77
2018-06-22T00:20:15.076Z,74.05
2018-06-22T00:21:15.092Z,74.05
2018-06-22T00:22:15.051Z,74.05
2018-06-22T00:23:15.038Z,74.46
2018-06-22T00:24:15.027Z,74.87
2018-06-22T00:25:15.018Z,74.66
2018-06-22T00:26:15.010Z,76.10
2018-06-22T00:27:15.004Z,78.45
2018-06-22T00:28:14.991Z,78.70
2018-06-22T00:29:14.977Z,77.47
2018-06-22T00:30:14.965Z,77.94
2018-06-22T00:31:14.952Z,79.41
2018-06-22T00:32:14.959Z,78.28
2018-06-22T00:33:14.931Z,78.28
2018-06-22T00:34:14.931Z,77.87
2018-06-22T00:35:14.916Z,76.44
2018-06-22T00:36:14.897Z,77.26
2018-06-22T00:37:14.915Z,77.67
2018-06-22T00:38:14.881Z,77.26
2018-06-22T00:39:14.872Z,77.77
2018-06-22T00:40:14.861Z,76.03
2018-06-22T00:41:14.849Z,75.93
2018-06-22T00:42:14.836Z,76.44
2018-06-22T00:43:14.825Z,75.93
2018-06-22T00:44:14.813Z,75.01
2018-06-22T00:45:14.803Z,75.11
2018-06-22T00:46:14.795Z,75.48
2018-06-22T00:47:14.786Z,75.42
2018-06-22T00:48:14.778Z,75.62
2018-06-22T00:49:14.762Z,75.48
2018-06-22T00:50:14.753Z,74.97
2018-06-22T00:51:14.736Z,73.85
2018-06-22T00:52:14.732Z,75.59
2018-06-22T00:53:14.722Z,74.05
2018-06-22T00:54:14.707Z,73.64
2018-06-22T00:55:14.693Z,74.46
2018-06-22T00:56:14.687Z,73.74
2018-06-22T00:57:14.677Z,74.36
2018-06-22T00:58:14.684Z,73.85
2018-06-22T00:59:14.657Z,73.85
2018-06-22T01:00:14.650Z,74.70
2018-06-22T01:01:14.634Z,76.34
2018-06-22T01:02:14.623Z,74.87
2018-06-22T01:03:14.626Z,74.77
2018-06-22T01:04:14.602Z,75.07
2018-06-22T01:05:14.591Z,75.28
2018-06-22T01:06:14.580Z,74.87
2018-06-22T01:07:14.571Z,75.31
2018-06-22T01:08:14.585Z,75.52
2018-06-22T01:09:14.547Z,75.15
2018-06-22T01:10:14.536Z,75.15
2018-06-22T01:11:14.528Z,75.35
2018-06-22T01:12:14.518Z,77.29
2018-06-22T01:13:14.504Z,76.17
2018-06-22T01:14:14.499Z,76.68
2018-06-22T01:15:14.483Z,76.37
2018-06-22T01:16:14.468Z,76.37
2018-06-22T01:17:14.458Z,76.37
2018-06-22T01:18:14.451Z,77.64
2018-06-22T01:19:14.452Z,78.16
2018-06-22T01:20:14.431Z,77.03
2018-06-22T01:21:14.433Z,77.33
2018-06-22T01:22:14.413Z,76.78
2018-06-22T01:23:14.391Z,75.76
2018-06-22T01:24:14.408Z,75.15
2018-06-22T01:25:14.376Z,75.21
2018-06-22T01:26:14.362Z,75.31
2018-06-22T01:27:14.416Z,75.01
2018-06-22T01:28:14.341Z,74.90
2018-06-22T01:29:14.350Z,76.44
2018-06-22T01:30:14.319Z,74.70
2018-06-22T01:31:14.312Z,74.80
2018-06-22T01:32:14.306Z,75.31
2018-06-22T01:33:14.287Z,75.11
2018-06-22T01:34:14.303Z,74.80
2018-06-22T01:35:14.261Z,75.31
2018-06-22T01:36:14.251Z,75.11
2018-06-22T01:37:14.242Z,75.21
2018-06-22T01:38:14.234Z,76.14
2018-06-22T01:39:14.224Z,76.24
2018-06-22T01:40:14.209Z,75.01
2018-06-22T01:41:14.196Z,74.60
2018-06-22T01:42:14.193Z,75.01
2018-06-22T01:43:14.180Z,76.24
2018-06-22T01:44:14.168Z,74.60
2018-06-22T01:45:14.179Z,74.77
2018-06-22T01:46:14.145Z,74.70
2018-06-22T01:47:14.134Z,75.07
2018-06-22T01:48:14.122Z,74.97
2018-06-22T01:49:14.111Z,75.38
2018-06-22T01:50:14.135Z,74.77
2018-06-22T01:51:14.094Z,74.49
2018-06-22T01:52:14.082Z,75.01
2018-06-22T01:53:14.077Z,75.59
2018-06-22T01:54:14.057Z,74.80
2018-06-22T01:55:14.048Z,75.01
2018-06-22T01:56:14.043Z,74.90
2018-06-22T01:57:14.031Z,74.66
2018-06-22T01:58:14.018Z,74.46
2018-06-22T01:59:14.006Z,75.21
2018-06-22T02:00:13.995Z,76.61
2018-06-22T02:01:14.004Z,74.97
2018-06-22T02:02:13.986Z,75.89
2018-06-22T02:03:13.965Z,75.89
2018-06-22T02:04:13.951Z,74.87
2018-06-22T02:05:13.942Z,75.38
2018-06-22T02:06:13.982Z,76.61
2018-06-22T02:07:13.921Z,74.60
2018-06-22T02:08:13.911Z,75.07
2018-06-22T02:09:13.903Z,74.56
2018-06-22T02:10:13.886Z,74.80
2018-06-22T02:11:13.876Z,75.93
2018-06-22T02:12:13.873Z,74.80
2018-06-22T02:13:13.860Z,75.52
2018-06-22T02:14:13.842Z,76.14
2018-06-22T02:15:13.835Z,75.11
2018-06-22T02:16:13.823Z,75.93
2018-06-22T02:17:13.811Z,76.10
2018-06-22T02:18:13.807Z,75.73
2018-06-22T02:19:13.793Z,75.73
2018-06-22T02:20:13.782Z,75.59
2018-06-22T02:21:13.774Z,75.82
2018-06-22T02:22:13.787Z,75.62
2018-06-22T02:23:13.749Z,75.21
2018-06-22T02:24:13.738Z,76.54
2018-06-22T02:25:13.725Z,77.16
2018-06-22T02:26:13.723Z,77.06
2018-06-22T02:27:13.708Z,76.65
2018-06-22T02:28:13.697Z,75.93
2018-06-22T02:29:13.681Z,76.95
2018-06-22T02:30:13.678Z,76.03
2018-06-22T02:31:13.666Z,76.34
2018-06-22T02:32:13.656Z,78.08
2018-06-22T02:33:13.665Z,76.54
2018-06-22T02:34:13.628Z,76.44
2018-06-22T02:35:13.620Z,76.54
2018-06-22T02:36:13.611Z,75.62
2018-06-22T02:37:13.597Z,76.65
2018-06-22T02:38:13.618Z,77.26
2018-06-22T02:39:13.579Z,77.77
2018-06-22T02:40:13.568Z,78.80
2018-06-22T02:41:13.561Z,80.13
2018-06-22T02:42:13.543Z,80.17
2018-06-22T02:43:13.535Z,80.88
2018-06-22T02:44:13.529Z,81.60
2018-06-22T02:45:13.519Z,81.60
2018-06-22T02:46:13.500Z,82.97
2018-06-22T02:47:13.493Z,82.05
2018-06-22T02:48:13.481Z,82.56
2018-06-22T02:49:13.470Z,82.15
2018-06-22T02:50:13.464Z,83.59
2018-06-22T02:51:13.453Z,84.52
2018-06-22T02:52:13.440Z,84.31
2018-06-22T02:53:13.447Z,84.52
2018-06-22T02:54:13.434Z,85.06
2018-06-22T02:55:13.406Z,87.02
2018-06-22T02:56:13.397Z,87.94
2018-06-22T02:57:13.383Z,87.94
2018-06-22T02:58:13.380Z,89.17
2018-06-22T02:59:13.393Z,88.80
2018-06-22T03:00:13.360Z,88.29
2018-06-22T03:01:13.340Z,87.98
2018-06-22T03:02:13.337Z,88.90
2018-06-22T03:03:13.323Z,89.83
2018-06-22T03:04:13.312Z,90.24
2018-06-22T03:05:13.311Z,89.46
2018-06-22T03:06:13.334Z,89.97
2018-06-22T03:07:13.277Z,88.53
2018-06-22T03:08:13.276Z,87.98
2018-06-22T03:09:13.253Z,87.98
2018-06-22T03:10:13.266Z,87.77
2018-06-22T03:11:13.236Z,87.67
2018-06-22T03:12:13.226Z,88.70
2018-06-22T03:13:13.217Z,88.29
2018-06-22T03:14:13.200Z,89.11
2018-06-22T03:15:13.221Z,87.88
2018-06-22T03:16:13.190Z,88.49
2018-06-22T03:17:13.173Z,87.05
2018-06-22T03:18:13.155Z,87.98
2018-06-22T03:19:13.147Z,88.08
2018-06-22T03:20:13.137Z,88.39
2018-06-22T03:21:13.125Z,88.08
2018-06-22T03:22:13.121Z,88.18
2018-06-22T03:23:13.120Z,87.98
2018-06-22T03:24:13.097Z,89.21
2018-06-22T03:25:13.090Z,88.18
2018-06-22T03:26:13.095Z,88.59
2018-06-22T03:27:13.068Z,88.49
2018-06-22T03:28:13.061Z,88.29
2018-06-22T03:29:13.037Z,88.49
2018-06-22T03:30:13.032Z,87.88
2018-06-22T03:31:13.051Z,89.42
2018-06-22T03:32:13.158Z,88.08
2018-06-22T03:33:12.995Z,87.98
2018-06-22T03:34:12.989Z,86.54
2018-06-22T03:35:12.981Z,87.26
2018-06-22T03:36:12.968Z,88.18
2018-06-22T03:37:12.960Z,87.77
2018-06-22T03:38:12.940Z,88.18
2018-06-22T03:39:12.932Z,88.18
2018-06-22T03:40:12.920Z,86.81
2018-06-22T03:41:12.910Z,86.85
2018-06-22T03:42:12.914Z,87.05
2018-06-22T03:43:12.891Z,86.75
2018-06-22T03:44:12.880Z,86.19
2018-06-22T03:45:12.871Z,86.81
2018-06-22T03:46:12.854Z,86.24
2018-06-22T03:47:12.848Z,85.99
2018-06-22T03:48:12.837Z,85.99
2018-06-22T03:49:12.827Z,85.58
2018-06-22T03:50:12.814Z,84.66
2018-06-22T03:51:12.805Z,84.76
2018-06-22T03:52:12.822Z,85.58
2018-06-22T03:53:12.782Z,84.25
2018-06-22T03:54:12.775Z,85.27
2018-06-22T03:55:12.770Z,84.14
2018-06-22T03:56:12.751Z,83.28
2018-06-22T03:57:12.742Z,84.00
2018-06-22T03:58:12.728Z,82.67
2018-06-22T03:59:12.719Z,83.07
2018-06-22T04:00:12.711Z,83.80
2018-06-22T04:01:12.701Z,83.80
2018-06-22T04:02:12.692Z,83.39
2018-06-22T04:03:12.695Z,83.49
2018-06-22T04:04:12.696Z,83.49
2018-06-22T04:05:12.655Z,85.03
2018-06-22T04:06:12.647Z,83.80
2018-06-22T04:07:12.632Z,83.07
2018-06-22T04:08:12.696Z,82.67
2018-06-22T04:09:12.613Z,82.87
2018-06-22T04:10:12.599Z,83.39
2018-06-22T04:11:12.585Z,83.18
2018-06-22T04:12:12.576Z,83.39
2018-06-22T04:13:12.567Z,82.36
2018-06-22T04:14:12.568Z,81.85
2018-06-22T04:15:12.545Z,82.53
2018-06-22T04:16:12.540Z,81.91
2018-06-22T04:17:12.564Z,83.14
2018-06-22T04:18:12.509Z,81.71
2018-06-22T04:19:12.520Z,81.40
2018-06-22T04:20:12.491Z,81.71
2018-06-22T04:21:12.489Z,81.50
2018-06-22T04:22:12.465Z,81.26
2018-06-22T04:23:12.456Z,81.81
2018-06-22T04:24:12.472Z,82.32
2018-06-22T04:25:12.436Z,81.50
2018-06-22T04:26:12.434Z,82.63
2018-06-22T04:27:12.416Z,80.58
2018-06-22T04:28:12.407Z,80.74
2018-06-22T04:29:12.398Z,81.91
2018-06-22T04:30:12.386Z,80.78
2018-06-22T04:31:12.374Z,81.05
2018-06-22T04:32:12.361Z,80.47
2018-06-22T04:33:12.347Z,81.15
2018-06-22T04:34:12.346Z,79.93
2018-06-22T04:35:12.356Z,80.74
2018-06-22T04:36:12.319Z,81.26
2018-06-22T04:37:12.306Z,80.23
2018-06-22T04:38:12.301Z,80.64
2018-06-22T04:39:12.287Z,80.19
2018-06-22T04:40:12.296Z,78.70
2018-06-22T04:41:12.271Z,78.97
2018-06-22T04:42:12.252Z,78.86
2018-06-22T04:43:12.245Z,79.07
2018-06-22T04:44:12.238Z,79.27
2018-06-22T04:45:12.250Z,78.56
2018-06-22T04:46:12.215Z,78.05
2018-06-22T04:47:12.208Z,78.05
2018-06-22T04:48:12.193Z,78.11
2018-06-22T04:49:12.186Z,78.93
2018-06-22T04:50:12.167Z,77.60
2018-06-22T04:51:12.168Z,77.80
2018-06-22T04:52:12.149Z,77.09
2018-06-22T04:53:12.143Z,76.98
2018-06-22T04:54:12.124Z,77.70
2018-06-22T04:55:12.116Z,76.78
2018-06-22T04:56:12.125Z,77.70
2018-06-22T04:57:12.092Z,77.80
2018-06-22T04:58:12.088Z,76.27
2018-06-22T04:59:12.077Z,78.01
2018-06-22T05:00:12.066Z,78.11
2018-06-22T05:01:12.080Z,77.80
2018-06-22T05:02:12.054Z,76.47
2018-06-22T05:03:12.041Z,76.06
2018-06-22T05:04:12.023Z,77.15
2018-06-22T05:05:12.006Z,75.62
2018-06-22T05:06:12.008Z,75.82
2018-06-22T05:07:11.998Z,76.13
2018-06-22T05:08:11.976Z,75.62
2018-06-22T05:09:11.998Z,76.23
2018-06-22T05:10:11.960Z,75.52
2018-06-22T05:11:11.976Z,76.34
2018-06-22T05:12:11.936Z,75.10
2018-06-22T05:13:11.927Z,76.64
2018-06-22T05:14:11.909Z,75.82
2018-06-22T05:15:11.902Z,76.40
2018-06-22T05:16:11.887Z,75.01
2018-06-22T05:17:11.880Z,74.56
2018-06-22T05:18:11.877Z,74.76
2018-06-22T05:19:11.861Z,74.76
2018-06-22T05:20:11.849Z,73.74
2018-06-22T05:21:11.843Z,75.07
2018-06-22T05:22:11.843Z,74.15
2018-06-22T05:23:11.815Z,73.54
2018-06-22T05:24:11.810Z,73.85
2018-06-22T05:25:11.800Z,73.94
2018-06-22T05:26:11.783Z,73.64
2018-06-22T05:27:11.800Z,73.13
2018-06-22T05:28:11.765Z,73.33
2018-06-22T05:29:11.750Z,73.44
2018-06-22T05:30:11.747Z,74.26
2018-06-22T05:31:11.739Z,73.74
2018-06-22T05:32:11.723Z,73.74
2018-06-22T05:33:11.720Z,73.54
2018-06-22T05:34:11.695Z,73.33
2018-06-22T05:35:11.685Z,72.72
2018-06-22T05:36:11.674Z,74.15
2018-06-22T05:37:11.660Z,73.94
2018-06-22T05:38:11.688Z,73.85
2018-06-22T05:39:11.642Z,74.76
2018-06-22T05:40:11.636Z,73.85
2018-06-22T05:41:11.617Z,73.74
2018-06-22T05:42:11.613Z,75.17
2018-06-22T05:43:11.605Z,77.32
2018-06-22T05:44:11.595Z,77.63
2018-06-22T05:45:11.581Z,76.61
2018-06-22T05:46:11.564Z,76.40
2018-06-22T05:47:11.561Z,78.55
2018-06-22T05:48:11.561Z,80.63
2018-06-22T05:49:11.570Z,83.70
2018-06-22T05:50:11.526Z,82.41
2018-06-22T05:51:11.511Z,82.71
2018-06-22T05:52:11.505Z,84.15
2018-06-22T05:53:11.499Z,84.39
2018-06-22T05:54:11.504Z,84.87
2018-06-22T05:55:11.467Z,85.69
2018-06-22T05:56:11.458Z,84.50
2018-06-22T05:57:11.448Z,84.70
2018-06-22T05:58:11.431Z,84.50
2018-06-22T05:59:11.424Z,85.01
2018-06-22T06:00:11.415Z,83.74
2018-06-22T06:01:11.400Z,82.82
2018-06-22T06:02:11.395Z,84.36
2018-06-22T06:03:11.389Z,84.77
2018-06-22T06:04:11.371Z,82.68
2018-06-22T06:05:11.394Z,83.03
2018-06-22T06:06:11.347Z,83.39
2018-06-22T06:07:11.337Z,83.19
2018-06-22T06:08:11.325Z,83.19
2018-06-22T06:09:11.318Z,83.44
2018-06-22T06:10:11.310Z,83.33
2018-06-22T06:11:11.359Z,83.44
2018-06-22T06:12:11.285Z,84.36
2018-06-22T06:13:11.270Z,83.54
2018-06-22T06:14:11.266Z,83.50
2018-06-22T06:15:11.253Z,84.11
2018-06-22T06:16:11.261Z,83.50
2018-06-22T06:17:11.233Z,85.85
2018-06-22T06:18:11.217Z,86.81
2018-06-22T06:19:11.207Z,85.69
2018-06-22T06:20:11.199Z,84.66
2018-06-22T06:21:11.219Z,85.07
2018-06-22T06:22:11.200Z,84.05
2018-06-22T06:23:11.184Z,84.52
2018-06-22T06:24:11.157Z,83.81
2018-06-22T06:25:11.146Z,83.50
2018-06-22T06:26:11.138Z,84.52
2018-06-22T06:27:11.180Z,83.66
2018-06-22T06:28:11.117Z,84.83
2018-06-22T06:29:11.106Z,85.24
2018-06-22T06:30:11.089Z,85.85
2018-06-22T06:31:11.080Z,87.08
2018-06-22T06:32:11.068Z,87.08
2018-06-22T06:33:11.055Z,87.73
2018-06-22T06:34:11.048Z,89.47
2018-06-22T06:35:11.056Z,88.96
2018-06-22T06:36:11.049Z,90.23
2018-06-22T06:37:11.064Z,90.34
2018-06-22T06:38:11.002Z,89.62
2018-06-22T06:39:10.988Z,90.03
2018-06-22T06:40:10.977Z,90.23
2018-06-22T06:41:10.972Z,90.13
2018-06-22T06:42:10.961Z,90.03
2018-06-22T06:43:10.953Z,91.05
2018-06-22T06:44:10.937Z,90.34
2018-06-22T06:45:10.927Z,90.30
2018-06-22T06:46:10.920Z,90.30
2018-06-22T06:47:10.911Z,89.83
2018-06-22T06:48:10.927Z,90.95
2018-06-22T06:49:10.885Z,90.58
2018-06-22T06:50:10.871Z,92.83
2018-06-22T06:51:10.860Z,93.25
2018-06-22T06:52:10.847Z,93.45
2018-06-22T06:53:10.837Z,92.78
2018-06-22T06:54:10.834Z,93.45
2018-06-22T06:55:10.824Z,92.88
2018-06-22T06:56:10.811Z,94.32
2018-06-22T06:57:10.802Z,94.62
2018-06-22T06:58:10.785Z,95.34
2018-06-22T06:59:10.775Z,94.83
2018-06-22T07:00:10.767Z,94.83
2018-06-22T07:01:10.755Z,95.75
2018-06-22T07:02:10.742Z,95.95
2018-06-22T07:03:10.730Z,95.54
2018-06-22T07:04:10.725Z,95.54
2018-06-22T07:05:10.710Z,96.06
2018-06-22T07:06:10.715Z,95.86
2018-06-22T07:07:10.693Z,96.16
2018-06-22T07:08:10.685Z,96.37
2018-06-22T07:09:10.697Z,96.88
2018-06-22T07:10:10.657Z,95.95
2018-06-22T07:11:10.643Z,95.91
2018-06-22T07:12:10.633Z,95.24
2018-06-22T07:13:10.624Z,96.26
2018-06-22T07:14:10.643Z,94.93
2018-06-22T07:15:10.607Z,94.62
2018-06-22T07:16:10.594Z,94.83
2018-06-22T07:17:10.664Z,94.99
2018-06-22T07:18:10.581Z,94.95
2018-06-22T07:19:10.564Z,94.27
2018-06-22T07:20:10.561Z,93.82
2018-06-22T07:21:10.549Z,94.02
2018-06-22T07:22:10.565Z,94.02
2018-06-22T07:23:10.514Z,93.51
2018-06-22T07:24:10.504Z,94.23
2018-06-22T07:25:10.513Z,94.17
2018-06-22T07:26:10.488Z,93.66
2018-06-22T07:27:10.478Z,94.84
2018-06-22T07:28:10.466Z,94.84
2018-06-22T07:29:10.454Z,94.74
2018-06-22T07:30:10.468Z,94.95
2018-06-22T07:31:10.426Z,94.95
2018-06-22T07:32:10.423Z,93.41
2018-06-22T07:33:10.410Z,93.41
2018-06-22T07:34:10.396Z,92.90
2018-06-22T07:35:10.384Z,94.02
2018-06-22T07:36:10.376Z,93.71
2018-06-22T07:37:10.370Z,94.12
2018-06-22T07:38:10.354Z,94.23
2018-06-22T07:39:10.349Z,93.30
2018-06-22T07:40:10.336Z,94.02
2018-06-22T07:41:10.324Z,92.38
2018-06-22T07:42:10.310Z,92.65
2018-06-22T07:43:10.297Z,93.12
2018-06-22T07:44:10.287Z,92.30
2018-06-22T07:45:10.281Z,91.52
2018-06-22T07:46:10.297Z,92.55
2018-06-22T07:47:10.259Z,93.06
2018-06-22T07:48:10.245Z,91.78
2018-06-22T07:49:10.239Z,91.93
2018-06-22T07:50:10.225Z,93.12
2018-06-22T07:51:10.218Z,93.32
2018-06-22T07:52:10.209Z,93.93
2018-06-22T07:53:10.193Z,93.93
2018-06-22T07:54:10.181Z,92.71
2018-06-22T07:55:10.216Z,92.30
2018-06-22T07:56:10.158Z,92.36
2018-06-22T07:57:10.206Z,91.95
2018-06-22T07:58:10.139Z,92.36
2018-06-22T07:59:10.141Z,92.25
2018-06-22T08:00:10.120Z,91.85
2018-06-22T08:01:10.112Z,91.33
2018-06-22T08:02:10.123Z,92.77
2018-06-22T08:03:10.085Z,92.40
2018-06-22T08:04:10.079Z,92.50
2018-06-22T08:05:10.066Z,90.62
2018-06-22T08:06:10.080Z,91.95
2018-06-22T08:07:10.043Z,91.29
2018-06-22T08:08:10.032Z,90.88
2018-06-22T08:09:10.020Z,91.70
2018-06-22T08:10:10.031Z,91.29
2018-06-22T08:11:10.002Z,91.91
2018-06-22T08:12:09.991Z,90.82
2018-06-22T08:13:10.000Z,90.31
2018-06-22T08:14:09.966Z,90.21
2018-06-22T08:15:09.952Z,90.72
2018-06-22T08:16:09.946Z,91.54
2018-06-22T08:17:09.934Z,91.13
2018-06-22T08:18:09.951Z,91.33
2018-06-22T08:19:09.916Z,90.99
2018-06-22T08:20:09.901Z,90.27
2018-06-22T08:21:09.892Z,90.37
2018-06-22T08:22:09.881Z,90.68
2018-06-22T08:23:09.873Z,89.25
2018-06-22T08:24:09.869Z,90.06
2018-06-22T08:25:09.849Z,89.97
2018-06-22T08:26:09.839Z,90.17
2018-06-22T08:27:09.824Z,91.25
2018-06-22T08:28:09.812Z,89.31
2018-06-22T08:29:09.837Z,88.14
2018-06-22T08:30:09.796Z,88.45
2018-06-22T08:31:09.787Z,88.76
2018-06-22T08:32:09.776Z,86.67
2018-06-22T08:33:09.782Z,88.57
2018-06-22T08:34:09.749Z,88.79
2018-06-22T08:35:09.741Z,86.51
2018-06-22T08:36:09.742Z,86.43
2018-06-22T08:37:09.730Z,85.39
2018-06-22T08:38:09.712Z,84.78
2018-06-22T08:39:09.693Z,79.53
2018-06-22T08:40:09.710Z,83.78
2018-06-22T08:41:09.674Z,81.27
2018-06-22T08:42:09.729Z,84.17
2018-06-22T08:43:09.657Z,85.96
2018-06-22T08:44:09.645Z,83.01
2018-06-22T08:45:09.655Z,81.82
2018-06-22T08:46:09.626Z,83.39
2018-06-22T08:47:09.619Z,82.98
2018-06-22T08:48:09.599Z,84.00
2018-06-22T08:49:09.589Z,83.86
2018-06-22T08:50:09.596Z,82.94
2018-06-22T08:51:09.568Z,82.27
2018-06-22T08:52:09.565Z,83.80
2018-06-22T08:53:09.549Z,84.92
2018-06-22T08:54:09.539Z,84.72
2018-06-22T08:55:09.554Z,84.00
2018-06-22T08:56:09.536Z,85.22
2018-06-22T08:57:09.501Z,80.97
2018-06-22T08:58:10.485Z,83.95
2018-06-22T08:59:09.474Z,83.91
2018-06-22T09:00:09.470Z,82.12
2018-06-22T09:01:09.469Z,82.15
2018-06-22T09:02:09.450Z,82.66
2018-06-22T09:03:09.439Z,82.66
2018-06-22T09:04:09.427Z,82.90
2018-06-22T09:05:09.413Z,82.03
2018-06-22T09:06:09.421Z,84.23
2018-06-22T09:07:09.393Z,82.56
2018-06-22T09:08:09.447Z,81.19
2018-06-22T09:09:09.370Z,79.90
2018-06-22T09:10:09.357Z,77.19
2018-06-22T09:11:09.373Z,80.17
2018-06-22T09:12:09.336Z,77.67
2018-06-22T09:13:09.362Z,77.67
2018-06-22T09:14:09.360Z,78.41
2018-06-22T09:15:09.308Z,78.70
2018-06-22T09:16:09.297Z,75.86
2018-06-22T09:17:09.287Z,75.29
2018-06-22T09:18:09.275Z,76.54
2018-06-22T09:19:09.261Z,77.56
2018-06-22T09:20:09.253Z,77.25
2018-06-22T09:21:09.238Z,75.43
2018-06-22T09:22:09.250Z,74.44
2018-06-22T09:23:09.223Z,76.23
2018-06-22T09:24:09.204Z,75.62
2018-06-22T09:25:09.199Z,71.97
2018-06-22T09:26:09.188Z,67.05
2018-06-22T09:27:09.206Z,70.15
2018-06-22T09:28:09.177Z,70.65
2018-06-22T09:29:09.161Z,74.07
2018-06-22T09:30:09.143Z,70.56
2018-06-22T09:31:09.127Z,74.00
2018-06-22T09:32:09.117Z,70.05
2018-06-22T09:33:09.115Z,70.25
2018-06-22T09:34:09.106Z,72.81
2018-06-22T09:35:09.100Z,71.64
2018-06-22T09:36:09.081Z,73.70
2018-06-22T09:37:09.070Z,74.41
2018-06-22T09:38:09.083Z,73.22
2018-06-22T09:39:09.043Z,74.01
2018-06-22T09:40:09.038Z,77.56
2018-06-22T09:41:09.028Z,76.18
2018-06-22T09:42:09.012Z,79.57
2018-06-22T09:43:09.019Z,77.33
2018-06-22T09:44:09.015Z,78.45
2018-06-22T09:45:08.997Z,79.02
2018-06-22T09:46:08.972Z,76.34
2018-06-22T09:47:08.965Z,75.53
2018-06-22T09:48:08.953Z,76.10
2018-06-22T09:49:08.969Z,77.22
2018-06-22T09:50:08.926Z,78.08
2018-06-22T09:51:08.914Z,75.94
2018-06-22T09:52:08.907Z,78.35
2018-06-22T09:53:08.941Z,80.93
2018-06-22T09:54:08.888Z,80.87
2018-06-22T09:55:08.943Z,82.70
2018-06-22T09:56:08.861Z,83.04
2018-06-22T09:57:08.851Z,86.41
2018-06-22T09:58:08.842Z,86.57
2018-06-22T09:59:08.836Z,86.98
2018-06-22T10:00:08.826Z,87.38
2018-06-22T10:01:08.819Z,87.24
2018-06-22T10:02:08.862Z,86.33
2018-06-22T10:03:08.784Z,86.19
2018-06-22T10:04:08.773Z,86.65
2018-06-22T10:05:08.791Z,83.97
2018-06-22T10:06:08.756Z,85.96
2018-06-22T10:07:08.749Z,86.02
2018-06-22T10:08:08.741Z,82.37
2018-06-22T10:09:08.723Z,83.08
2018-06-22T10:10:08.724Z,81.86
2018-06-22T10:11:08.700Z,84.88
2018-06-22T10:12:08.695Z,85.33
2018-06-22T10:13:08.681Z,84.39
2018-06-22T10:14:08.671Z,86.27
2018-06-22T10:15:08.653Z,86.61
2018-06-22T10:16:08.680Z,88.85
2018-06-22T10:17:08.635Z,89.26
2018-06-22T10:18:08.625Z,87.18
2018-06-22T10:19:08.617Z,88.00
2018-06-22T10:20:08.611Z,85.72
2018-06-22T10:21:08.594Z,87.10
2018-06-22T10:22:08.584Z,86.00
2018-06-22T10:23:08.574Z,83.87
2018-06-22T10:24:08.565Z,83.56
2018-06-22T10:25:08.555Z,83.87
2018-06-22T10:26:08.539Z,83.26
2018-06-22T10:27:08.561Z,83.76
2018-06-22T10:28:08.516Z,85.05
2018-06-22T10:29:08.520Z,85.31
2018-06-22T10:30:08.497Z,85.31
2018-06-22T10:31:08.493Z,82.00
2018-06-22T10:32:08.497Z,84.48
2018-06-22T10:33:08.469Z,84.21
2018-06-22T10:34:08.452Z,86.25
2018-06-22T10:35:08.438Z,88.69
2018-06-22T10:36:08.429Z,88.13
2018-06-22T10:37:08.445Z,89.36
2018-06-22T10:38:08.413Z,86.00
2018-06-22T10:39:08.432Z,90.64
2018-06-22T10:40:08.399Z,89.58
2018-06-22T10:41:08.381Z,91.10
2018-06-22T10:42:08.364Z,89.54
2018-06-22T10:43:08.365Z,89.09
2018-06-22T10:44:08.349Z,89.55
2018-06-22T10:45:08.339Z,88.40
2018-06-22T10:46:08.336Z,87.81
2018-06-22T10:47:08.314Z,82.20
2018-06-22T10:48:08.330Z,83.07
2018-06-22T10:49:08.290Z,79.39
2018-06-22T10:50:08.285Z,73.99
2018-06-22T10:51:08.275Z,71.97
2018-06-22T10:52:08.261Z,69.68
2018-06-22T10:53:08.258Z,71.37
2018-06-22T10:54:08.237Z,73.15
2018-06-22T10:55:08.228Z,75.07
2018-06-22T10:56:08.218Z,74.71
2018-06-22T10:57:08.204Z,75.28
2018-06-22T10:58:08.199Z,75.82
2018-06-22T10:59:08.205Z,77.55
2018-06-22T11:00:08.172Z,75.73
2018-06-22T11:01:08.160Z,76.82
2018-06-22T11:02:08.156Z,79.25
2018-06-22T11:03:08.144Z,77.73
2018-06-22T11:04:08.163Z,77.53
2018-06-22T11:05:08.125Z,78.30
2018-06-22T11:06:08.113Z,77.80
2018-06-22T11:07:08.101Z,78.98
2018-06-22T11:08:08.087Z,77.93
2018-06-22T11:09:08.074Z,77.25
2018-06-22T11:10:08.077Z,76.43
2018-06-22T11:11:08.071Z,76.40
2018-06-22T11:12:08.047Z,76.16
2018-06-22T11:13:08.037Z,73.83
2018-06-22T11:14:08.030Z,73.73
2018-06-22T11:15:08.053Z,72.78
2018-06-22T11:16:08.050Z,71.20
2018-06-22T11:17:08.033Z,69.31
2018-06-22T11:18:08.027Z,68.43
2018-06-22T11:19:07.971Z,71.20
2018-06-22T11:20:07.957Z,69.18
2018-06-22T11:21:07.950Z,67.22
2018-06-22T11:22:07.945Z,70.12
2018-06-22T11:23:07.930Z,72.08
2018-06-22T11:24:07.919Z,71.40
2018-06-22T11:25:07.909Z,73.09
2018-06-22T11:26:07.922Z,75.76
2018-06-22T11:27:07.883Z,77.22
2018-06-22T11:28:07.876Z,78.57
2018-06-22T11:29:07.863Z,80.26
2018-06-22T11:30:07.856Z,81.82
2018-06-22T11:31:07.845Z,82.53
2018-06-22T11:32:07.856Z,81.96
2018-06-22T11:33:07.817Z,83.01
2018-06-22T11:34:07.812Z,85.90
2018-06-22T11:35:07.800Z,88.22
2018-06-22T11:36:07.848Z,88.98
2018-06-22T11:37:07.788Z,90.24
2018-06-22T11:38:07.763Z,91.26
2018-06-22T11:39:07.762Z,93.44
2018-06-22T11:40:07.743Z,93.95
2018-06-22T11:41:07.732Z,94.87
2018-06-22T11:42:07.757Z,94.87
2018-06-22T11:43:07.713Z,95.28
2018-06-22T11:44:07.728Z,94.47
2018-06-22T11:45:07.698Z,93.96
2018-06-22T11:46:07.677Z,93.21
2018-06-22T11:47:07.670Z,91.94
2018-06-22T11:48:07.664Z,89.76
2018-06-22T11:49:07.652Z,87.89
2018-06-22T11:50:07.634Z,88.97
2018-06-22T11:51:07.650Z,89.64
2018-06-22T11:52:07.615Z,89.80
2018-06-22T11:53:07.636Z,88.60
2018-06-22T11:54:07.598Z,86.69
2018-06-22T11:55:07.588Z,85.78
2018-06-22T11:56:07.574Z,87.16
2018-06-22T11:57:07.567Z,86.76
2018-06-22T11:58:07.549Z,85.07
2018-06-22T11:59:07.620Z,84.55
2018-06-22T12:00:07.538Z,82.75
2018-06-22T12:01:07.524Z,81.34
2018-06-22T12:02:07.516Z,80.05
2018-06-22T12:03:07.524Z,78.79
2018-06-22T12:04:07.488Z,78.35
2018-06-22T12:05:07.474Z,75.22
2018-06-22T12:06:07.469Z,73.27
2018-06-22T12:07:07.457Z,72.13
2018-06-22T12:08:07.450Z,70.76
2018-06-22T12:09:07.471Z,75.22
2018-06-22T12:10:07.422Z,71.83
2018-06-22T12:11:07.415Z,77.75
2018-06-22T12:12:07.404Z,72.41
2018-06-22T12:13:07.391Z,68.18
2018-06-22T12:14:07.392Z,72.44
2018-06-22T12:15:07.376Z,70.73
2018-06-22T12:16:07.365Z,73.52
2018-06-22T12:17:07.356Z,74.02
2018-06-22T12:18:07.339Z,71.97
2018-06-22T12:19:07.417Z,69.75
2018-06-22T12:20:07.349Z,71.37
2018-06-22T12:21:07.315Z,68.59
2018-06-22T12:22:07.302Z,69.22
2018-06-22T12:23:07.290Z,64.67
2018-06-22T12:24:07.282Z,66.68
2018-06-22T12:25:07.273Z,63.78
2018-06-22T12:26:07.267Z,61.67
2018-06-22T12:27:07.260Z,63.47
2018-06-22T12:28:07.245Z,63.75
2018-06-22T12:29:07.235Z,58.00
2018-06-22T12:30:07.218Z,63.78
2018-06-22T12:31:07.246Z,64.56
2018-06-22T12:32:07.203Z,59.64
2018-06-22T12:33:07.193Z,57.37
2018-06-22T12:34:07.188Z,59.83
2018-06-22T12:35:07.175Z,53.24
2018-06-22T12:36:07.165Z,58.43
2018-06-22T12:37:07.152Z,63.43
2018-06-22T12:38:07.148Z,55.73
2018-06-22T12:39:07.135Z,57.92
2018-06-22T12:40:07.127Z,57.24
2018-06-22T12:41:07.118Z,58.39
2018-06-22T12:42:07.130Z,54.94
2018-06-22T12:43:07.095Z,56.87
2018-06-22T12:44:07.085Z,56.77
2018-06-22T12:45:07.176Z,52.89
2018-06-22T12:46:07.071Z,53.47
2018-06-22T12:47:07.060Z,53.04
2018-06-22T12:48:07.054Z,49.90
2018-06-22T12:49:07.046Z,52.47
2018-06-22T12:50:07.025Z,49.48
2018-06-22T12:51:07.022Z,52.17
2018-06-22T12:52:07.036Z,51.05